Lincoln, New Hampshire
Current Conditions -  °F | °C
As of 9:15 AM on Wednesday 28 Jan 2015 (Local Time) from K1P1 Reporting Station
Broken Clouds Broken Clouds  
Wind Chill: -2°   Ceiling: 7000
Heat Index: 12°   Visibility: 10mi
Dew Point:   Wind: 10mph
Humidity: 73%   Direction: 270°W
Pressure: 29.96"   Gusts: 21mph
Location:  44.05°N, 71.67°W
Report Text: K1P1 281415Z AUTO 27009G18KT 10SM BKN070 M11/M15 A2996 RMK AO2 T11131152
Loading
Personal Weather Stations






























Interactive Weather Map New forecast layout! Learn more

10-Day Weather Forecast

Advertisements
Track Severe Weather on mobile